Terminal Aerodrome Forecast
Issued by NWS Grand Rapids, MI

Home | Current Version | Previous Version | Text Only | Print | Product List | Glossary On
Versions: 1 2 3 4 5 6 7 8 9 10 11 12 13 14 15 16 17 18
000
FTUS43 KGRR 300000 AAA
TAFGRR
TAF AMD
KGRR 300034Z 3001/3024 23015G22KT 2SM -RASN OVC025
     FM300300 25013G20KT P6SM SCT015 BKN035
     FM300700 28010KT P6SM FEW035=

USA.gov is the U.S. government's official web portal to all federal, state and local government web resources and services.